sensor_id;sensor_type;location;lat;lon;timestamp;P1;durP1;ratioP1;P2;durP2;ratioP2
48487;SDS011;34289;48.572;13.378;2023-05-31T00:01:27;6.32;;;3.92;;
48487;SDS011;34289;48.572;13.378;2023-05-31T00:03:53;6.35;;;4.20;;
48487;SDS011;34289;48.572;13.378;2023-05-31T00:06:18;5.28;;;3.58;;
48487;SDS011;34289;48.572;13.378;2023-05-31T00:08:44;4.63;;;2.75;;
48487;SDS011;34289;48.572;13.378;2023-05-31T00:11:10;4.90;;;3.05;;
48487;SDS011;34289;48.572;13.378;2023-05-31T00:13:35;5.97;;;2.97;;
48487;SDS011;34289;48.572;13.378;2023-05-31T00:16:03;5.68;;;3.30;;
48487;SDS011;34289;48.572;13.378;2023-05-31T00:18:30;9.07;;;2.92;;
48487;SDS011;34289;48.572;13.378;2023-05-31T00:20:55;6.97;;;3.25;;
48487;SDS011;34289;48.572;13.378;2023-05-31T00:23:21;7.05;;;3.60;;
48487;SDS011;34289;48.572;13.378;2023-05-31T00:25:46;10.38;;;3.17;;
48487;SDS011;34289;48.572;13.378;2023-05-31T00:28:12;6.57;;;3.80;;
48487;SDS011;34289;48.572;13.378;2023-05-31T00:30:38;7.53;;;3.60;;
48487;SDS011;34289;48.572;13.378;2023-05-31T00:33:04;7.43;;;3.97;;
48487;SDS011;34289;48.572;13.378;2023-05-31T00:35:30;6.47;;;3.40;;
48487;SDS011;34289;48.572;13.378;2023-05-31T00:37:55;9.50;;;3.58;;
48487;SDS011;34289;48.572;13.378;2023-05-31T00:40:21;9.75;;;4.43;;
48487;SDS011;34289;48.572;13.378;2023-05-31T00:42:47;10.00;;;3.95;;
48487;SDS011;34289;48.572;13.378;2023-05-31T00:45:12;14.80;;;4.28;;
48487;SDS011;34289;48.572;13.378;2023-05-31T00:47:38;10.25;;;3.72;;
48487;SDS011;34289;48.572;13.378;2023-05-31T00:50:04;8.40;;;4.45;;
48487;SDS011;34289;48.572;13.378;2023-05-31T00:52:31;9.07;;;4.28;;
48487;SDS011;34289;48.572;13.378;2023-05-31T00:55:00;6.32;;;3.25;;
48487;SDS011;34289;48.572;13.378;2023-05-31T00:57:27;10.35;;;4.28;;
48487;SDS011;34289;48.572;13.378;2023-05-31T00:59:53;6.38;;;3.05;;
48487;SDS011;34289;48.572;13.378;2023-05-31T01:02:18;6.60;;;3.42;;
48487;SDS011;34289;48.572;13.378;2023-05-31T01:04:44;6.18;;;3.10;;
48487;SDS011;34289;48.572;13.378;2023-05-31T01:07:10;11.80;;;3.70;;
48487;SDS011;34289;48.572;13.378;2023-05-31T01:09:36;7.75;;;3.80;;
48487;SDS011;34289;48.572;13.378;2023-05-31T01:12:26;4.65;;;2.88;;
48487;SDS011;34289;48.572;13.378;2023-05-31T01:20:08;5.25;;;3.22;;
48487;SDS011;34289;48.572;13.378;2023-05-31T01:28:12;3.85;;;2.67;;
48487;SDS011;34289;48.572;13.378;2023-05-31T01:30:39;3.28;;;2.30;;
48487;SDS011;34289;48.572;13.378;2023-05-31T01:33:07;5.70;;;3.08;;
48487;SDS011;34289;48.572;13.378;2023-05-31T01:35:37;6.82;;;3.47;;
48487;SDS011;34289;48.572;13.378;2023-05-31T01:38:03;5.80;;;3.75;;
48487;SDS011;34289;48.572;13.378;2023-05-31T01:40:28;4.78;;;2.95;;
48487;SDS011;34289;48.572;13.378;2023-05-31T01:42:55;9.45;;;3.38;;
48487;SDS011;34289;48.572;13.378;2023-05-31T01:45:21;6.15;;;3.13;;
48487;SDS011;34289;48.572;13.378;2023-05-31T01:47:48;6.07;;;3.17;;
48487;SDS011;34289;48.572;13.378;2023-05-31T01:50:18;4.60;;;4.18;;
48487;SDS011;34289;48.572;13.378;2023-05-31T01:52:44;7.43;;;6.82;;
48487;SDS011;34289;48.572;13.378;2023-05-31T01:55:10;11.43;;;7.18;;
48487;SDS011;34289;48.572;13.378;2023-05-31T01:57:39;9.43;;;7.70;;
48487;SDS011;34289;48.572;13.378;2023-05-31T02:00:08;10.57;;;6.65;;
48487;SDS011;34289;48.572;13.378;2023-05-31T02:02:40;8.27;;;7.30;;
48487;SDS011;34289;48.572;13.378;2023-05-31T02:05:10;7.30;;;6.70;;
48487;SDS011;34289;48.572;13.378;2023-05-31T02:07:38;8.05;;;7.35;;
48487;SDS011;34289;48.572;13.378;2023-05-31T02:10:08;11.18;;;7.85;;
48487;SDS011;34289;48.572;13.378;2023-05-31T02:12:35;10.30;;;7.82;;
48487;SDS011;34289;48.572;13.378;2023-05-31T02:15:01;7.30;;;6.70;;
48487;SDS011;34289;48.572;13.378;2023-05-31T02:17:28;8.13;;;7.30;;
48487;SDS011;34289;48.572;13.378;2023-05-31T02:19:57;8.05;;;7.32;;
48487;SDS011;34289;48.572;13.378;2023-05-31T02:22:23;10.57;;;6.80;;
48487;SDS011;34289;48.572;13.378;2023-05-31T02:24:49;8.52;;;7.60;;
48487;SDS011;34289;48.572;13.378;2023-05-31T02:27:15;8.88;;;6.90;;
48487;SDS011;34289;48.572;13.378;2023-05-31T02:29:41;7.45;;;6.75;;
48487;SDS011;34289;48.572;13.378;2023-05-31T02:32:09;8.13;;;7.32;;
48487;SDS011;34289;48.572;13.378;2023-05-31T02:34:35;10.75;;;7.80;;
48487;SDS011;34289;48.572;13.378;2023-05-31T02:37:01;8.27;;;7.32;;
48487;SDS011;34289;48.572;13.378;2023-05-31T02:39:27;8.13;;;7.43;;
48487;SDS011;34289;48.572;13.378;2023-05-31T02:41:53;7.80;;;7.10;;
48487;SDS011;34289;48.572;13.378;2023-05-31T02:44:20;8.18;;;7.30;;
48487;SDS011;34289;48.572;13.378;2023-05-31T02:46:45;8.48;;;6.60;;
48487;SDS011;34289;48.572;13.378;2023-05-31T02:49:11;8.23;;;7.00;;
48487;SDS011;34289;48.572;13.378;2023-05-31T02:51:37;8.18;;;6.90;;
48487;SDS011;34289;48.572;13.378;2023-05-31T02:54:02;8.02;;;6.72;;
48487;SDS011;34289;48.572;13.378;2023-05-31T02:56:28;11.35;;;8.00;;
48487;SDS011;34289;48.572;13.378;2023-05-31T02:58:54;7.60;;;6.90;;
48487;SDS011;34289;48.572;13.378;2023-05-31T03:01:21;8.05;;;6.95;;
48487;SDS011;34289;48.572;13.378;2023-05-31T03:03:46;7.43;;;6.90;;
48487;SDS011;34289;48.572;13.378;2023-05-31T03:06:12;7.60;;;7.00;;
48487;SDS011;34289;48.572;13.378;2023-05-31T03:08:42;7.50;;;6.80;;
48487;SDS011;34289;48.572;13.378;2023-05-31T03:11:07;7.47;;;6.70;;
48487;SDS011;34289;48.572;13.378;2023-05-31T03:13:33;7.70;;;6.60;;
48487;SDS011;34289;48.572;13.378;2023-05-31T03:15:58;7.75;;;7.15;;
48487;SDS011;34289;48.572;13.378;2023-05-31T03:18:25;8.52;;;7.65;;
48487;SDS011;34289;48.572;13.378;2023-05-31T03:20:51;7.43;;;6.72;;
48487;SDS011;34289;48.572;13.378;2023-05-31T03:23:16;7.85;;;6.50;;
48487;SDS011;34289;48.572;13.378;2023-05-31T03:25:42;6.88;;;6.28;;
48487;SDS011;34289;48.572;13.378;2023-05-31T03:28:08;7.05;;;6.40;;
48487;SDS011;34289;48.572;13.378;2023-05-31T03:30:33;7.25;;;6.63;;
48487;SDS011;34289;48.572;13.378;2023-05-31T03:32:59;10.63;;;6.95;;
48487;SDS011;34289;48.572;13.378;2023-05-31T03:35:25;8.18;;;6.20;;
48487;SDS011;34289;48.572;13.378;2023-05-31T03:37:52;7.15;;;6.65;;
48487;SDS011;34289;48.572;13.378;2023-05-31T03:40:18;7.15;;;6.30;;
48487;SDS011;34289;48.572;13.378;2023-05-31T03:42:43;9.25;;;7.03;;
48487;SDS011;34289;48.572;13.378;2023-05-31T03:45:09;7.97;;;6.93;;
48487;SDS011;34289;48.572;13.378;2023-05-31T03:47:35;12.30;;;7.35;;
48487;SDS011;34289;48.572;13.378;2023-05-31T03:50:00;9.73;;;7.90;;
48487;SDS011;34289;48.572;13.378;2023-05-31T03:52:28;15.25;;;8.77;;
48487;SDS011;34289;48.572;13.378;2023-05-31T03:54:54;10.18;;;7.88;;
48487;SDS011;34289;48.572;13.378;2023-05-31T03:57:19;7.18;;;6.20;;
48487;SDS011;34289;48.572;13.378;2023-05-31T03:59:45;10.85;;;6.43;;
48487;SDS011;34289;48.572;13.378;2023-05-31T04:02:11;11.88;;;6.47;;
48487;SDS011;34289;48.572;13.378;2023-05-31T04:04:36;9.48;;;7.60;;
48487;SDS011;34289;48.572;13.378;2023-05-31T04:07:02;8.00;;;7.20;;
48487;SDS011;34289;48.572;13.378;2023-05-31T04:09:27;8.90;;;6.47;;
48487;SDS011;34289;48.572;13.378;2023-05-31T04:11:53;9.05;;;6.38;;
48487;SDS011;34289;48.572;13.378;2023-05-31T04:14:19;8.57;;;7.05;;
48487;SDS011;34289;48.572;13.378;2023-05-31T04:16:44;8.20;;;7.10;;
48487;SDS011;34289;48.572;13.378;2023-05-31T04:19:10;7.70;;;6.28;;
48487;SDS011;34289;48.572;13.378;2023-05-31T04:21:35;7.30;;;6.47;;
48487;SDS011;34289;48.572;13.378;2023-05-31T04:24:01;9.90;;;7.22;;
48487;SDS011;34289;48.572;13.378;2023-05-31T04:26:27;7.28;;;6.57;;
48487;SDS011;34289;48.572;13.378;2023-05-31T04:28:54;16.73;;;8.23;;
48487;SDS011;34289;48.572;13.378;2023-05-31T04:31:19;13.30;;;8.43;;
48487;SDS011;34289;48.572;13.378;2023-05-31T04:33:49;7.97;;;7.18;;
48487;SDS011;34289;48.572;13.378;2023-05-31T04:36:16;7.63;;;6.90;;
48487;SDS011;34289;48.572;13.378;2023-05-31T04:38:41;7.60;;;6.90;;
48487;SDS011;34289;48.572;13.378;2023-05-31T04:41:07;6.93;;;6.32;;
48487;SDS011;34289;48.572;13.378;2023-05-31T04:43:33;8.93;;;7.10;;
48487;SDS011;34289;48.572;13.378;2023-05-31T04:45:59;12.07;;;8.82;;
48487;SDS011;34289;48.572;13.378;2023-05-31T04:48:25;9.18;;;8.38;;
48487;SDS011;34289;48.572;13.378;2023-05-31T04:50:52;9.40;;;8.32;;
48487;SDS011;34289;48.572;13.378;2023-05-31T04:53:20;5.38;;;3.45;;
48487;SDS011;34289;48.572;13.378;2023-05-31T04:55:45;11.20;;;10.07;;
48487;SDS011;34289;48.572;13.378;2023-05-31T04:58:11;11.70;;;10.60;;
48487;SDS011;34289;48.572;13.378;2023-05-31T05:00:37;12.15;;;10.70;;
48487;SDS011;34289;48.572;13.378;2023-05-31T05:03:03;10.05;;;9.05;;
48487;SDS011;34289;48.572;13.378;2023-05-31T05:05:28;9.88;;;8.88;;
48487;SDS011;34289;48.572;13.378;2023-05-31T05:07:54;5.07;;;2.63;;
48487;SDS011;34289;48.572;13.378;2023-05-31T05:10:20;9.30;;;8.57;;
48487;SDS011;34289;48.572;13.378;2023-05-31T05:12:45;9.25;;;8.45;;
48487;SDS011;34289;48.572;13.378;2023-05-31T05:15:11;4.60;;;2.38;;
48487;SDS011;34289;48.572;13.378;2023-05-31T05:17:36;4.50;;;2.63;;
48487;SDS011;34289;48.572;13.378;2023-05-31T05:20:02;5.20;;;2.40;;
48487;SDS011;34289;48.572;13.378;2023-05-31T05:22:33;3.85;;;2.15;;
48487;SDS011;34289;48.572;13.378;2023-05-31T05:24:58;6.13;;;4.75;;
48487;SDS011;34289;48.572;13.378;2023-05-31T05:27:25;5.22;;;2.22;;
48487;SDS011;34289;48.572;13.378;2023-05-31T05:29:50;3.55;;;2.03;;
48487;SDS011;34289;48.572;13.378;2023-05-31T05:32:16;3.00;;;2.10;;
48487;SDS011;34289;48.572;13.378;2023-05-31T05:34:42;7.95;;;1.90;;
48487;SDS011;34289;48.572;13.378;2023-05-31T05:37:07;3.78;;;1.88;;
48487;SDS011;34289;48.572;13.378;2023-05-31T05:39:33;7.35;;;6.75;;
48487;SDS011;34289;48.572;13.378;2023-05-31T05:41:58;4.88;;;2.30;;
48487;SDS011;34289;48.572;13.378;2023-05-31T05:44:24;3.17;;;2.05;;
48487;SDS011;34289;48.572;13.378;2023-05-31T05:46:50;4.82;;;2.05;;
48487;SDS011;34289;48.572;13.378;2023-05-31T05:49:15;5.03;;;2.03;;
48487;SDS011;34289;48.572;13.378;2023-05-31T05:51:41;5.43;;;2.10;;
48487;SDS011;34289;48.572;13.378;2023-05-31T05:54:07;3.92;;;2.17;;
48487;SDS011;34289;48.572;13.378;2023-05-31T05:56:32;5.40;;;1.98;;
48487;SDS011;34289;48.572;13.378;2023-05-31T05:58:58;5.43;;;2.25;;
48487;SDS011;34289;48.572;13.378;2023-05-31T06:01:24;4.55;;;2.88;;
48487;SDS011;34289;48.572;13.378;2023-05-31T06:03:51;7.00;;;3.65;;
48487;SDS011;34289;48.572;13.378;2023-05-31T06:06:17;4.32;;;2.92;;
48487;SDS011;34289;48.572;13.378;2023-05-31T06:08:43;10.25;;;9.48;;
48487;SDS011;34289;48.572;13.378;2023-05-31T06:11:10;5.28;;;3.88;;
48487;SDS011;34289;48.572;13.378;2023-05-31T06:13:36;3.38;;;1.92;;
48487;SDS011;34289;48.572;13.378;2023-05-31T06:16:03;5.05;;;2.40;;
48487;SDS011;34289;48.572;13.378;2023-05-31T06:18:29;4.78;;;2.17;;
48487;SDS011;34289;48.572;13.378;2023-05-31T06:20:54;3.92;;;1.90;;
48487;SDS011;34289;48.572;13.378;2023-05-31T06:23:20;4.97;;;2.20;;
48487;SDS011;34289;48.572;13.378;2023-05-31T06:25:46;6.25;;;2.78;;
48487;SDS011;34289;48.572;13.378;2023-05-31T06:28:12;5.75;;;2.10;;
48487;SDS011;34289;48.572;13.378;2023-05-31T06:30:37;4.78;;;2.22;;
48487;SDS011;34289;48.572;13.378;2023-05-31T06:33:03;7.97;;;2.40;;
48487;SDS011;34289;48.572;13.378;2023-05-31T06:35:28;11.70;;;2.13;;
48487;SDS011;34289;48.572;13.378;2023-05-31T06:37:55;6.95;;;5.80;;
48487;SDS011;34289;48.572;13.378;2023-05-31T06:40:21;4.50;;;3.88;;
48487;SDS011;34289;48.572;13.378;2023-05-31T06:42:47;5.40;;;4.85;;
48487;SDS011;34289;48.572;13.378;2023-05-31T06:45:12;6.72;;;2.05;;
48487;SDS011;34289;48.572;13.378;2023-05-31T06:47:38;8.13;;;2.20;;
48487;SDS011;34289;48.572;13.378;2023-05-31T06:50:04;6.90;;;1.98;;
48487;SDS011;34289;48.572;13.378;2023-05-31T06:52:30;5.47;;;2.63;;
48487;SDS011;34289;48.572;13.378;2023-05-31T06:54:56;4.55;;;2.25;;
48487;SDS011;34289;48.572;13.378;2023-05-31T06:57:21;6.13;;;2.55;;
48487;SDS011;34289;48.572;13.378;2023-05-31T06:59:47;9.27;;;1.80;;
48487;SDS011;34289;48.572;13.378;2023-05-31T07:02:13;12.70;;;2.90;;
48487;SDS011;34289;48.572;13.378;2023-05-31T07:04:40;5.32;;;2.05;;
48487;SDS011;34289;48.572;13.378;2023-05-31T07:07:06;6.28;;;2.10;;
48487;SDS011;34289;48.572;13.378;2023-05-31T07:09:34;9.00;;;2.17;;
48487;SDS011;34289;48.572;13.378;2023-05-31T07:11:59;4.55;;;2.03;;
48487;SDS011;34289;48.572;13.378;2023-05-31T07:14:26;6.57;;;2.22;;
48487;SDS011;34289;48.572;13.378;2023-05-31T07:16:55;4.25;;;2.10;;
48487;SDS011;34289;48.572;13.378;2023-05-31T07:19:21;4.43;;;2.10;;
48487;SDS011;34289;48.572;13.378;2023-05-31T07:21:46;5.20;;;2.30;;
48487;SDS011;34289;48.572;13.378;2023-05-31T07:24:12;6.65;;;2.08;;
48487;SDS011;34289;48.572;13.378;2023-05-31T07:26:37;6.55;;;2.03;;
48487;SDS011;34289;48.572;13.378;2023-05-31T07:29:03;8.38;;;2.30;;
48487;SDS011;34289;48.572;13.378;2023-05-31T07:31:29;5.15;;;1.98;;
48487;SDS011;34289;48.572;13.378;2023-05-31T07:33:54;10.20;;;2.08;;
48487;SDS011;34289;48.572;13.378;2023-05-31T07:36:20;4.43;;;1.90;;
48487;SDS011;34289;48.572;13.378;2023-05-31T07:38:50;18.45;;;3.08;;
48487;SDS011;34289;48.572;13.378;2023-05-31T07:41:17;7.55;;;2.50;;
48487;SDS011;34289;48.572;13.378;2023-05-31T07:43:43;5.70;;;2.20;;
48487;SDS011;34289;48.572;13.378;2023-05-31T07:46:10;7.22;;;2.60;;
48487;SDS011;34289;48.572;13.378;2023-05-31T07:48:36;4.28;;;2.42;;
48487;SDS011;34289;48.572;13.378;2023-05-31T07:51:01;6.63;;;2.50;;
48487;SDS011;34289;48.572;13.378;2023-05-31T07:53:27;6.75;;;2.50;;
48487;SDS011;34289;48.572;13.378;2023-05-31T07:55:53;5.85;;;2.05;;
48487;SDS011;34289;48.572;13.378;2023-05-31T07:58:18;3.83;;;2.10;;
48487;SDS011;34289;48.572;13.378;2023-05-31T08:00:44;7.82;;;2.72;;
48487;SDS011;34289;48.572;13.378;2023-05-31T08:03:10;6.68;;;2.90;;
48487;SDS011;34289;48.572;13.378;2023-05-31T08:05:36;8.40;;;2.30;;
48487;SDS011;34289;48.572;13.378;2023-05-31T08:08:01;8.13;;;2.35;;
48487;SDS011;34289;48.572;13.378;2023-05-31T08:10:27;7.97;;;2.05;;
48487;SDS011;34289;48.572;13.378;2023-05-31T08:12:54;6.50;;;2.42;;
48487;SDS011;34289;48.572;13.378;2023-05-31T08:15:21;4.93;;;2.25;;
48487;SDS011;34289;48.572;13.378;2023-05-31T08:17:47;3.88;;;2.10;;
48487;SDS011;34289;48.572;13.378;2023-05-31T08:20:12;5.05;;;2.33;;
48487;SDS011;34289;48.572;13.378;2023-05-31T08:22:43;17.60;;;3.15;;
48487;SDS011;34289;48.572;13.378;2023-05-31T08:25:10;6.13;;;2.17;;
48487;SDS011;34289;48.572;13.378;2023-05-31T08:27:38;7.93;;;2.28;;
48487;SDS011;34289;48.572;13.378;2023-05-31T08:30:05;6.22;;;2.83;;
48487;SDS011;34289;48.572;13.378;2023-05-31T08:32:34;4.88;;;2.25;;
48487;SDS011;34289;48.572;13.378;2023-05-31T08:35:00;6.03;;;2.28;;
48487;SDS011;34289;48.572;13.378;2023-05-31T08:37:26;6.18;;;2.20;;
48487;SDS011;34289;48.572;13.378;2023-05-31T08:39:51;10.73;;;3.47;;
48487;SDS011;34289;48.572;13.378;2023-05-31T08:42:28;18.23;;;3.25;;
48487;SDS011;34289;48.572;13.378;2023-05-31T08:45:06;6.90;;;2.45;;
48487;SDS011;34289;48.572;13.378;2023-05-31T08:47:36;6.68;;;2.47;;
48487;SDS011;34289;48.572;13.378;2023-05-31T08:50:08;5.03;;;2.20;;
48487;SDS011;34289;48.572;13.378;2023-05-31T08:52:35;7.93;;;2.35;;
48487;SDS011;34289;48.572;13.378;2023-05-31T08:55:01;3.50;;;2.10;;
48487;SDS011;34289;48.572;13.378;2023-05-31T08:57:29;13.63;;;2.40;;
48487;SDS011;34289;48.572;13.378;2023-05-31T08:59:55;15.02;;;2.55;;
48487;SDS011;34289;48.572;13.378;2023-05-31T09:02:22;4.40;;;2.13;;
48487;SDS011;34289;48.572;13.378;2023-05-31T09:04:49;6.53;;;2.40;;
48487;SDS011;34289;48.572;13.378;2023-05-31T09:07:16;9.70;;;2.58;;
48487;SDS011;34289;48.572;13.378;2023-05-31T09:09:42;9.05;;;2.15;;
48487;SDS011;34289;48.572;13.378;2023-05-31T09:12:08;4.03;;;2.28;;
48487;SDS011;34289;48.572;13.378;2023-05-31T09:14:34;4.93;;;2.42;;
48487;SDS011;34289;48.572;13.378;2023-05-31T09:16:59;6.82;;;2.70;;
48487;SDS011;34289;48.572;13.378;2023-05-31T09:19:25;5.43;;;2.17;;
48487;SDS011;34289;48.572;13.378;2023-05-31T09:21:51;6.22;;;2.85;;
48487;SDS011;34289;48.572;13.378;2023-05-31T09:24:18;4.95;;;2.33;;
48487;SDS011;34289;48.572;13.378;2023-05-31T09:26:48;5.97;;;2.63;;
48487;SDS011;34289;48.572;13.378;2023-05-31T09:29:15;7.10;;;2.38;;
48487;SDS011;34289;48.572;13.378;2023-05-31T09:31:42;5.70;;;2.45;;
48487;SDS011;34289;48.572;13.378;2023-05-31T09:39:17;4.10;;;2.63;;
48487;SDS011;34289;48.572;13.378;2023-05-31T09:41:45;7.45;;;3.10;;
48487;SDS011;34289;48.572;13.378;2023-05-31T09:44:15;4.47;;;2.60;;
48487;SDS011;34289;48.572;13.378;2023-05-31T09:46:40;7.25;;;2.67;;
48487;SDS011;34289;48.572;13.378;2023-05-31T09:49:06;5.03;;;2.42;;
48487;SDS011;34289;48.572;13.378;2023-05-31T09:51:34;4.95;;;2.72;;
48487;SDS011;34289;48.572;13.378;2023-05-31T09:54:01;7.35;;;2.70;;
48487;SDS011;34289;48.572;13.378;2023-05-31T09:56:35;7.10;;;2.88;;
48487;SDS011;34289;48.572;13.378;2023-05-31T09:59:02;6.97;;;2.72;;
48487;SDS011;34289;48.572;13.378;2023-05-31T10:01:29;10.38;;;3.22;;
48487;SDS011;34289;48.572;13.378;2023-05-31T10:03:56;9.98;;;3.00;;
48487;SDS011;34289;48.572;13.378;2023-05-31T10:06:24;5.57;;;2.22;;
48487;SDS011;34289;48.572;13.378;2023-05-31T10:08:50;9.10;;;2.60;;
48487;SDS011;34289;48.572;13.378;2023-05-31T10:11:17;4.20;;;2.45;;
48487;SDS011;34289;48.572;13.378;2023-05-31T10:13:50;4.50;;;2.88;;
48487;SDS011;34289;48.572;13.378;2023-05-31T10:16:21;7.00;;;2.60;;
48487;SDS011;34289;48.572;13.378;2023-05-31T10:18:48;5.57;;;2.67;;
48487;SDS011;34289;48.572;13.378;2023-05-31T10:21:18;5.57;;;2.67;;
48487;SDS011;34289;48.572;13.378;2023-05-31T10:24:13;5.97;;;3.10;;
48487;SDS011;34289;48.572;13.378;2023-05-31T10:29:51;11.40;;;3.03;;
48487;SDS011;34289;48.572;13.378;2023-05-31T10:32:24;7.28;;;3.20;;
48487;SDS011;34289;48.572;13.378;2023-05-31T10:34:52;4.68;;;2.47;;
48487;SDS011;34289;48.572;13.378;2023-05-31T10:37:18;8.27;;;3.25;;
48487;SDS011;34289;48.572;13.378;2023-05-31T10:39:47;9.35;;;3.00;;
48487;SDS011;34289;48.572;13.378;2023-05-31T10:47:38;7.22;;;2.78;;
48487;SDS011;34289;48.572;13.378;2023-05-31T10:50:17;7.80;;;3.10;;
48487;SDS011;34289;48.572;13.378;2023-05-31T10:52:44;6.43;;;2.75;;
48487;SDS011;34289;48.572;13.378;2023-05-31T10:55:19;6.15;;;3.17;;
48487;SDS011;34289;48.572;13.378;2023-05-31T10:57:52;7.43;;;3.67;;
48487;SDS011;34289;48.572;13.378;2023-05-31T11:00:19;10.52;;;3.47;;
48487;SDS011;34289;48.572;13.378;2023-05-31T11:02:52;4.90;;;2.78;;
48487;SDS011;34289;48.572;13.378;2023-05-31T11:05:22;7.20;;;3.22;;
48487;SDS011;34289;48.572;13.378;2023-05-31T11:07:50;7.95;;;3.10;;
48487;SDS011;34289;48.572;13.378;2023-05-31T11:10:30;4.03;;;2.40;;
48487;SDS011;34289;48.572;13.378;2023-05-31T11:13:03;6.45;;;2.63;;
48487;SDS011;34289;48.572;13.378;2023-05-31T11:15:39;7.72;;;2.80;;
48487;SDS011;34289;48.572;13.378;2023-05-31T11:18:16;6.88;;;3.15;;
48487;SDS011;34289;48.572;13.378;2023-05-31T11:20:48;15.18;;;4.75;;
48487;SDS011;34289;48.572;13.378;2023-05-31T11:25:42;6.50;;;2.97;;
48487;SDS011;34289;48.572;13.378;2023-05-31T11:28:08;7.65;;;3.47;;
48487;SDS011;34289;48.572;13.378;2023-05-31T11:30:35;8.63;;;3.53;;
48487;SDS011;34289;48.572;13.378;2023-05-31T11:33:02;6.40;;;3.03;;
48487;SDS011;34289;48.572;13.378;2023-05-31T11:35:31;9.88;;;3.10;;
48487;SDS011;34289;48.572;13.378;2023-05-31T11:38:01;5.55;;;3.38;;
48487;SDS011;34289;48.572;13.378;2023-05-31T11:40:28;10.45;;;3.17;;
48487;SDS011;34289;48.572;13.378;2023-05-31T11:43:01;8.40;;;3.15;;
48487;SDS011;34289;48.572;13.378;2023-05-31T11:45:28;8.43;;;3.42;;
48487;SDS011;34289;48.572;13.378;2023-05-31T11:48:17;4.60;;;2.88;;
48487;SDS011;34289;48.572;13.378;2023-05-31T11:51:02;6.28;;;2.67;;
48487;SDS011;34289;48.572;13.378;2023-05-31T11:53:28;5.82;;;2.67;;
48487;SDS011;34289;48.572;13.378;2023-05-31T11:55:53;5.07;;;2.42;;
48487;SDS011;34289;48.572;13.378;2023-05-31T11:58:19;5.70;;;3.25;;
48487;SDS011;34289;48.572;13.378;2023-05-31T12:00:46;4.95;;;2.60;;
48487;SDS011;34289;48.572;13.378;2023-05-31T12:03:15;10.32;;;2.75;;
48487;SDS011;34289;48.572;13.378;2023-05-31T12:05:48;6.72;;;2.58;;
48487;SDS011;34289;48.572;13.378;2023-05-31T12:08:16;6.63;;;2.97;;
48487;SDS011;34289;48.572;13.378;2023-05-31T12:10:41;5.47;;;2.70;;
48487;SDS011;34289;48.572;13.378;2023-05-31T12:13:07;4.60;;;2.35;;
48487;SDS011;34289;48.572;13.378;2023-05-31T12:15:33;6.15;;;2.78;;
48487;SDS011;34289;48.572;13.378;2023-05-31T12:17:59;7.78;;;3.90;;
48487;SDS011;34289;48.572;13.378;2023-05-31T12:20:28;5.45;;;2.95;;
48487;SDS011;34289;48.572;13.378;2023-05-31T12:23:14;5.30;;;2.80;;
48487;SDS011;34289;48.572;13.378;2023-05-31T12:25:47;4.20;;;2.47;;
48487;SDS011;34289;48.572;13.378;2023-05-31T12:28:15;5.22;;;2.92;;
48487;SDS011;34289;48.572;13.378;2023-05-31T12:30:47;6.50;;;2.47;;
48487;SDS011;34289;48.572;13.378;2023-05-31T12:33:14;8.73;;;2.90;;
48487;SDS011;34289;48.572;13.378;2023-05-31T12:35:41;4.35;;;2.65;;
48487;SDS011;34289;48.572;13.378;2023-05-31T12:38:11;7.53;;;2.45;;
48487;SDS011;34289;48.572;13.378;2023-05-31T12:40:37;11.88;;;2.47;;
48487;SDS011;34289;48.572;13.378;2023-05-31T12:43:04;5.97;;;3.17;;
48487;SDS011;34289;48.572;13.378;2023-05-31T12:45:31;5.07;;;2.97;;
48487;SDS011;34289;48.572;13.378;2023-05-31T12:47:56;5.13;;;3.10;;
48487;SDS011;34289;48.572;13.378;2023-05-31T12:50:23;8.13;;;2.85;;
48487;SDS011;34289;48.572;13.378;2023-05-31T12:52:55;9.13;;;2.92;;
48487;SDS011;34289;48.572;13.378;2023-05-31T12:55:22;6.57;;;2.90;;
48487;SDS011;34289;48.572;13.378;2023-05-31T12:57:47;7.60;;;2.90;;
48487;SDS011;34289;48.572;13.378;2023-05-31T13:00:13;4.05;;;2.60;;
48487;SDS011;34289;48.572;13.378;2023-05-31T13:02:39;7.18;;;2.92;;
48487;SDS011;34289;48.572;13.378;2023-05-31T13:05:06;8.23;;;2.90;;
48487;SDS011;34289;48.572;13.378;2023-05-31T13:07:32;5.55;;;3.08;;
48487;SDS011;34289;48.572;13.378;2023-05-31T13:09:58;8.32;;;3.22;;
48487;SDS011;34289;48.572;13.378;2023-05-31T13:12:24;7.50;;;3.20;;
48487;SDS011;34289;48.572;13.378;2023-05-31T13:14:49;5.32;;;3.38;;
48487;SDS011;34289;48.572;13.378;2023-05-31T13:17:18;6.50;;;3.22;;
48487;SDS011;34289;48.572;13.378;2023-05-31T13:19:44;4.85;;;2.90;;
48487;SDS011;34289;48.572;13.378;2023-05-31T13:22:11;4.72;;;3.28;;
48487;SDS011;34289;48.572;13.378;2023-05-31T13:24:37;6.28;;;4.03;;
48487;SDS011;34289;48.572;13.378;2023-05-31T13:27:03;6.53;;;3.47;;
48487;SDS011;34289;48.572;13.378;2023-05-31T13:29:29;6.60;;;3.42;;
48487;SDS011;34289;48.572;13.378;2023-05-31T13:31:55;12.00;;;3.63;;
48487;SDS011;34289;48.572;13.378;2023-05-31T13:34:21;7.20;;;3.15;;
48487;SDS011;34289;48.572;13.378;2023-05-31T13:36:46;15.48;;;3.72;;
48487;SDS011;34289;48.572;13.378;2023-05-31T13:39:13;8.27;;;3.00;;
48487;SDS011;34289;48.572;13.378;2023-05-31T13:41:41;20.80;;;4.25;;
48487;SDS011;34289;48.572;13.378;2023-05-31T13:44:08;6.88;;;3.53;;
48487;SDS011;34289;48.572;13.378;2023-05-31T13:46:33;24.83;;;4.60;;
48487;SDS011;34289;48.572;13.378;2023-05-31T13:48:59;7.43;;;3.55;;
48487;SDS011;34289;48.572;13.378;2023-05-31T13:51:25;7.40;;;3.58;;
48487;SDS011;34289;48.572;13.378;2023-05-31T13:53:50;8.32;;;3.97;;
48487;SDS011;34289;48.572;13.378;2023-05-31T13:56:16;4.93;;;3.05;;
48487;SDS011;34289;48.572;13.378;2023-05-31T13:58:42;8.80;;;3.63;;
48487;SDS011;34289;48.572;13.378;2023-05-31T14:01:07;19.67;;;4.28;;
48487;SDS011;34289;48.572;13.378;2023-05-31T14:03:33;7.57;;;3.70;;
48487;SDS011;34289;48.572;13.378;2023-05-31T14:06:00;7.00;;;3.45;;
48487;SDS011;34289;48.572;13.378;2023-05-31T14:08:26;5.30;;;3.25;;
48487;SDS011;34289;48.572;13.378;2023-05-31T14:10:52;7.90;;;3.38;;
48487;SDS011;34289;48.572;13.378;2023-05-31T14:13:18;6.47;;;3.30;;
48487;SDS011;34289;48.572;13.378;2023-05-31T14:15:44;8.02;;;3.03;;
48487;SDS011;34289;48.572;13.378;2023-05-31T14:18:09;5.97;;;2.95;;
48487;SDS011;34289;48.572;13.378;2023-05-31T14:20:35;6.68;;;3.10;;
48487;SDS011;34289;48.572;13.378;2023-05-31T14:23:02;7.72;;;3.22;;
48487;SDS011;34289;48.572;13.378;2023-05-31T14:25:28;4.60;;;3.35;;
48487;SDS011;34289;48.572;13.378;2023-05-31T14:27:53;11.10;;;2.55;;
48487;SDS011;34289;48.572;13.378;2023-05-31T14:30:19;7.82;;;3.40;;
48487;SDS011;34289;48.572;13.378;2023-05-31T14:32:45;10.63;;;3.85;;
48487;SDS011;34289;48.572;13.378;2023-05-31T14:35:10;6.30;;;3.00;;
48487;SDS011;34289;48.572;13.378;2023-05-31T14:37:36;7.43;;;3.47;;
48487;SDS011;34289;48.572;13.378;2023-05-31T14:40:02;7.63;;;3.65;;
48487;SDS011;34289;48.572;13.378;2023-05-31T14:42:28;8.68;;;3.53;;
48487;SDS011;34289;48.572;13.378;2023-05-31T14:44:54;6.03;;;3.10;;
48487;SDS011;34289;48.572;13.378;2023-05-31T14:47:20;6.15;;;3.22;;
48487;SDS011;34289;48.572;13.378;2023-05-31T14:49:46;6.55;;;3.25;;
48487;SDS011;34289;48.572;13.378;2023-05-31T14:52:11;7.95;;;4.30;;
48487;SDS011;34289;48.572;13.378;2023-05-31T14:54:37;7.07;;;2.78;;
48487;SDS011;34289;48.572;13.378;2023-05-31T14:57:03;7.30;;;3.72;;
48487;SDS011;34289;48.572;13.378;2023-05-31T14:59:29;5.10;;;3.85;;